createdAt,value
2023-10-25T00:01:14.527Z,96419.34
2023-10-25T00:03:41.373Z,96425.59
2023-10-25T00:06:08.241Z,96417.72
2023-10-25T00:08:34.824Z,96378.88
2023-10-25T00:11:06.825Z,96360.53
2023-10-25T00:13:34.425Z,96375.38
2023-10-25T00:16:01.215Z,96351.81
2023-10-25T00:18:28.609Z,96348.44
2023-10-25T00:20:55.843Z,96377.03
2023-10-25T00:23:23.079Z,96391.53
2023-10-25T00:25:50.840Z,96389.78
2023-10-25T00:28:18.299Z,96400.22
2023-10-25T00:30:47.904Z,96398.34
2023-10-25T00:33:14.572Z,96392.16
2023-10-25T00:35:41.836Z,96417.59
2023-10-25T00:38:08.538Z,96420.22
2023-10-25T00:40:35.273Z,96417.44
2023-10-25T00:43:20.583Z,96392.03
2023-10-25T00:46:10.161Z,96385.63
2023-10-25T00:48:37.572Z,96395.03
2023-10-25T00:51:04.523Z,96407.94
2023-10-25T00:53:34.098Z,96415.19
2023-10-25T00:56:02.814Z,96425.56
2023-10-25T00:58:32.475Z,96418.31
2023-10-25T01:00:59.622Z,96400.22
2023-10-25T01:03:26.555Z,96422.69
2023-10-25T01:05:53.455Z,96427.88
2023-10-25T01:08:22.153Z,96433.63
2023-10-25T01:10:53.089Z,96435.56
2023-10-25T01:13:20.964Z,96430.94
2023-10-25T01:15:48.381Z,96432.38
2023-10-25T01:18:18.666Z,96437.50
2023-10-25T01:20:46.604Z,96434.75
2023-10-25T01:23:13.769Z,96423.41
2023-10-25T01:25:43.700Z,96421.84
2023-10-25T01:28:11.328Z,96424.25
2023-10-25T01:30:38.146Z,96426.28
2023-10-25T01:33:04.798Z,96426.47
2023-10-25T01:35:31.780Z,96420.84
2023-10-25T01:37:58.284Z,96426.78
2023-10-25T01:40:25.003Z,96390.78
2023-10-25T01:42:55.493Z,96407.25
2023-10-25T01:45:24.280Z,96410.63
2023-10-25T01:47:51.135Z,96401.38
2023-10-25T01:50:19.440Z,96415.56
2023-10-25T01:52:47.305Z,96413.13
2023-10-25T01:55:14.871Z,96410.47
2023-10-25T01:57:41.537Z,96412.72
2023-10-25T02:00:09.389Z,96400.03
2023-10-25T02:02:42.177Z,96389.75
2023-10-25T02:05:08.990Z,96383.53
2023-10-25T02:07:35.893Z,96385.75
2023-10-25T02:10:03.206Z,96387.94
2023-10-25T02:12:29.850Z,96390.41
2023-10-25T02:14:56.472Z,96386.13
2023-10-25T02:17:24.024Z,96381.00
2023-10-25T02:19:50.570Z,96381.56
2023-10-25T02:22:17.502Z,96378.34
2023-10-25T02:24:44.273Z,96374.31
2023-10-25T02:27:10.955Z,96372.47
2023-10-25T02:29:37.811Z,96371.91
2023-10-25T02:32:08.821Z,96368.94
2023-10-25T02:34:36.813Z,96360.06
2023-10-25T02:37:03.891Z,96356.91
2023-10-25T02:39:30.600Z,96348.03
2023-10-25T02:41:57.132Z,96346.97
2023-10-25T02:44:23.762Z,96352.38
2023-10-25T02:46:50.572Z,96341.28
2023-10-25T02:49:17.337Z,96334.06
2023-10-25T02:51:43.953Z,96319.97
2023-10-25T02:54:10.548Z,96318.59
2023-10-25T02:56:37.097Z,96316.44
2023-10-25T02:59:05.135Z,96316.44
2023-10-25T03:01:31.749Z,96326.69
2023-10-25T03:03:58.634Z,96305.38
2023-10-25T03:06:25.284Z,96296.19
2023-10-25T03:08:53.490Z,96290.00
2023-10-25T03:11:20.012Z,96288.38
2023-10-25T03:13:47.356Z,96259.97
2023-10-25T03:16:14.946Z,96258.56
2023-10-25T03:18:42.057Z,96262.88
2023-10-25T03:21:08.898Z,96272.22
2023-10-25T03:23:35.477Z,96287.84
2023-10-25T03:26:11.325Z,96301.03
2023-10-25T03:28:40.568Z,96308.53
2023-10-25T03:31:09.449Z,96313.72
2023-10-25T03:33:36.308Z,96311.03
2023-10-25T03:36:03.218Z,96314.22
2023-10-25T03:38:30.087Z,96301.59
2023-10-25T03:41:04.924Z,96299.78
2023-10-25T03:43:32.596Z,96291.44
2023-10-25T03:46:09.342Z,96288.41
2023-10-25T03:48:37.335Z,96279.13
2023-10-25T03:51:07.782Z,96270.28
2023-10-25T03:53:38.376Z,96247.63
2023-10-25T03:56:05.444Z,96240.91
2023-10-25T03:58:32.236Z,96223.41
2023-10-25T04:01:06.914Z,96218.75
2023-10-25T04:03:36.411Z,96237.75
2023-10-25T04:06:09.452Z,96252.00
2023-10-25T04:08:36.894Z,96265.69
2023-10-25T04:11:03.478Z,96257.09
2023-10-25T04:13:29.961Z,96260.06
2023-10-25T04:16:01.079Z,96243.09
2023-10-25T04:18:29.570Z,96243.34
2023-10-25T04:20:57.753Z,96211.69
2023-10-25T04:23:25.270Z,96200.06
2023-10-25T04:25:52.207Z,96203.03
2023-10-25T04:28:20.030Z,96209.59
2023-10-25T04:30:46.876Z,96215.00
2023-10-25T04:33:13.655Z,96212.81
2023-10-25T04:35:41.245Z,96193.88
2023-10-25T04:38:07.859Z,96166.78
2023-10-25T04:40:34.343Z,96172.66
2023-10-25T04:43:00.947Z,96186.66
2023-10-25T04:45:27.689Z,96181.19
2023-10-25T04:47:54.308Z,96175.19
2023-10-25T04:50:22.844Z,96175.41
2023-10-25T04:52:49.842Z,96165.72
2023-10-25T04:55:16.605Z,96196.91
2023-10-25T04:57:43.266Z,96152.88
2023-10-25T05:00:11.182Z,96185.41
2023-10-25T05:02:39.530Z,96192.59
2023-10-25T05:05:10.093Z,96185.91
2023-10-25T05:07:40.608Z,96174.75
2023-10-25T05:10:09.042Z,96206.72
2023-10-25T05:12:47.438Z,96177.00
2023-10-25T05:15:18.873Z,96212.53
2023-10-25T05:17:48.191Z,96225.81
2023-10-25T05:20:15.717Z,96229.47
2023-10-25T05:22:45.860Z,96223.97
2023-10-25T05:25:12.961Z,96217.66
2023-10-25T05:27:40.047Z,96203.94
2023-10-25T05:30:08.793Z,96195.94
2023-10-25T05:32:37.019Z,96189.75
2023-10-25T05:35:06.273Z,96174.69
2023-10-25T05:37:34.030Z,96174.97
2023-10-25T05:40:01.432Z,96155.13
2023-10-25T05:42:28.641Z,96146.28
2023-10-25T05:44:56.667Z,96126.09
2023-10-25T05:47:27.321Z,96123.16
2023-10-25T05:49:54.280Z,96116.13
2023-10-25T05:52:21.927Z,96123.69
2023-10-25T05:54:48.925Z,96123.69
2023-10-25T05:57:15.802Z,96125.81
2023-10-25T05:59:42.867Z,96126.09
2023-10-25T06:02:23.835Z,96122.56
2023-10-25T06:04:50.970Z,96120.41
2023-10-25T06:07:17.968Z,96118.28
2023-10-25T06:09:44.814Z,96122.59
2023-10-25T06:12:11.871Z,96110.25
2023-10-25T06:14:38.440Z,96098.72
2023-10-25T06:17:05.175Z,96095.75
2023-10-25T06:19:31.773Z,96089.88
2023-10-25T06:21:58.414Z,96074.22
2023-10-25T06:24:25.141Z,96071.53
2023-10-25T06:26:51.709Z,96065.31
2023-10-25T06:29:18.345Z,96055.91
2023-10-25T06:31:51.933Z,96059.19
2023-10-25T06:34:22.136Z,96046.28
2023-10-25T06:36:49.654Z,96026.88
2023-10-25T06:39:16.765Z,96026.38
2023-10-25T06:41:44.619Z,96016.16
2023-10-25T06:44:11.777Z,96014.56
2023-10-25T06:46:38.709Z,96008.38
2023-10-25T06:49:05.759Z,96004.88
2023-10-25T06:51:32.580Z,95999.75
2023-10-25T06:53:59.478Z,95997.06
2023-10-25T06:56:26.395Z,95985.47
2023-10-25T06:58:54.476Z,95970.63
2023-10-25T07:01:24.745Z,95972.78
2023-10-25T07:03:52.442Z,95977.38
2023-10-25T07:06:19.740Z,95971.16
2023-10-25T07:08:49.428Z,95961.44
2023-10-25T07:11:15.983Z,95953.38
2023-10-25T07:13:42.575Z,95960.91
2023-10-25T07:16:09.376Z,95946.34
2023-10-25T07:18:38.521Z,95943.91
2023-10-25T07:21:06.765Z,95959.00
2023-10-25T07:23:33.446Z,95960.91
2023-10-25T07:26:00.337Z,95955.75
2023-10-25T07:28:27.333Z,95943.31
2023-10-25T07:30:54.072Z,95948.72
2023-10-25T07:33:22.180Z,95943.88
2023-10-25T07:35:48.720Z,95937.66
2023-10-25T07:38:15.262Z,95939.81
2023-10-25T07:40:42.029Z,95936.06
2023-10-25T07:43:10.299Z,95937.41
2023-10-25T07:45:36.860Z,95919.56
2023-10-25T07:48:04.225Z,95914.72
2023-10-25T07:50:31.875Z,95917.91
2023-10-25T07:52:58.459Z,95915.72
2023-10-25T08:00:25.035Z,95901.53
2023-10-25T08:02:51.803Z,95905.78
2023-10-25T08:05:18.596Z,95897.81
2023-10-25T08:07:48.338Z,95893.69
2023-10-25T08:10:14.886Z,95891.94
2023-10-25T08:12:41.873Z,95881.03
2023-10-25T08:15:08.993Z,95877.75
2023-10-25T08:17:35.632Z,95878.03
2023-10-25T08:20:02.236Z,95867.25
2023-10-25T08:22:28.757Z,95868.56
2023-10-25T08:24:55.318Z,95859.09
2023-10-25T08:27:21.788Z,95860.69
2023-10-25T08:29:48.310Z,95849.00
2023-10-25T08:32:14.924Z,95851.13
2023-10-25T08:34:46.677Z,95847.94
2023-10-25T08:37:13.316Z,95859.59
2023-10-25T08:39:41.641Z,95855.63
2023-10-25T08:42:13.078Z,95845.31
2023-10-25T08:44:42.354Z,95849.94
2023-10-25T08:47:12.888Z,95844.81
2023-10-25T08:49:40.060Z,95833.69
2023-10-25T08:52:07.940Z,95840.88
2023-10-25T08:54:36.541Z,95835.66
2023-10-25T08:57:05.293Z,95828.88
2023-10-25T08:59:32.328Z,95835.03
2023-10-25T09:01:58.946Z,95831.53
2023-10-25T09:04:25.674Z,95836.19
2023-10-25T09:06:52.373Z,95828.88
2023-10-25T09:09:19.073Z,95823.88
2023-10-25T09:11:47.023Z,95817.94
2023-10-25T09:14:15.217Z,95816.31
2023-10-25T09:16:46.055Z,95816.03
2023-10-25T09:19:12.799Z,95812.00
2023-10-25T09:21:39.385Z,95812.91
2023-10-25T09:24:09.474Z,95806.41
2023-10-25T09:26:38.219Z,95813.47
2023-10-25T09:29:05.236Z,95813.47
2023-10-25T09:31:32.773Z,95809.47
2023-10-25T09:34:00.644Z,95806.47
2023-10-25T09:36:28.253Z,95795.84
2023-10-25T09:38:56.302Z,95794.75
2023-10-25T09:41:25.073Z,95787.28
2023-10-25T09:43:53.338Z,95783.72
2023-10-25T09:46:22.159Z,95776.59
2023-10-25T09:48:54.261Z,95768.97
2023-10-25T09:51:41.300Z,95771.28
2023-10-25T09:54:14.948Z,95767.13
2023-10-25T09:56:43.251Z,95761.53
2023-10-25T09:59:12.247Z,95750.94
2023-10-25T10:01:40.724Z,95761.28
2023-10-25T10:04:27.186Z,95748.38
2023-10-25T10:07:10.390Z,95745.84
2023-10-25T10:09:48.713Z,95735.41
2023-10-25T10:12:15.700Z,95724.91
2023-10-25T10:14:42.631Z,95719.31
2023-10-25T10:17:18.162Z,95716.63
2023-10-25T10:19:46.697Z,95728.75
2023-10-25T10:22:15.179Z,95721.34
2023-10-25T10:24:41.923Z,95717.53
2023-10-25T10:27:09.430Z,95706.41
2023-10-25T10:29:35.973Z,95693.25
2023-10-25T10:32:04.433Z,95686.44
2023-10-25T10:34:44.228Z,95677.63
2023-10-25T10:37:13.706Z,95676.31
2023-10-25T10:40:05.046Z,95670.00
2023-10-25T10:42:34.829Z,95662.78
2023-10-25T10:45:11.526Z,95669.72
2023-10-25T10:47:45.084Z,95665.22
2023-10-25T10:50:19.571Z,95649.03
2023-10-25T10:52:47.909Z,95640.44
2023-10-25T10:55:16.784Z,95632.97
2023-10-25T10:57:52.788Z,95630.50
2023-10-25T11:00:29.910Z,95617.13
2023-10-25T11:02:56.733Z,95614.69
2023-10-25T11:05:24.355Z,95618.41
2023-10-25T11:07:52.436Z,95608.75
2023-10-25T11:10:19.106Z,95606.97
2023-10-25T11:12:46.149Z,95585.34
2023-10-25T11:15:13.845Z,95588.84
2023-10-25T11:17:41.548Z,95590.22
2023-10-25T11:20:08.370Z,95588.25
2023-10-25T11:22:37.617Z,95569.75
2023-10-25T11:25:11.895Z,95566.78
2023-10-25T11:27:39.315Z,95567.28
2023-10-25T11:30:06.579Z,95555.66
2023-10-25T11:32:34.309Z,95556.06
2023-10-25T11:35:00.952Z,95553.56
2023-10-25T11:37:47.930Z,95547.84
2023-10-25T11:40:14.902Z,95549.41
2023-10-25T11:42:41.848Z,95540.03
2023-10-25T11:45:09.257Z,95539.16
2023-10-25T11:47:38.505Z,95541.09
2023-10-25T11:50:06.657Z,95528.63
2023-10-25T11:52:33.681Z,95531.66
2023-10-25T11:55:02.577Z,95515.63
2023-10-25T11:57:31.115Z,95518.84
2023-10-25T11:59:58.455Z,95499.00
2023-10-25T12:02:26.541Z,95490.97
2023-10-25T12:04:57.169Z,95487.44
2023-10-25T12:07:24.733Z,95485.22
2023-10-25T12:09:54.633Z,95487.16
2023-10-25T12:12:21.815Z,95488.91
2023-10-25T12:14:49.096Z,95478.66
2023-10-25T12:17:16.414Z,95485.03
2023-10-25T12:19:43.542Z,95479.47
2023-10-25T12:22:13.900Z,95476.13
2023-10-25T12:24:43.710Z,95479.44
2023-10-25T12:27:10.723Z,95476.13
2023-10-25T12:29:37.274Z,95475.00
2023-10-25T12:32:04.551Z,95473.72
2023-10-25T12:34:31.250Z,95472.91
2023-10-25T12:36:58.135Z,95466.84
2023-10-25T12:39:24.954Z,95476.78
2023-10-25T12:41:51.543Z,95456.63
2023-10-25T12:44:18.121Z,95462.22
2023-10-25T12:46:45.482Z,95450.84
2023-10-25T12:49:15.040Z,95443.66
2023-10-25T12:51:41.627Z,95443.00
2023-10-25T12:54:08.836Z,95433.75
2023-10-25T12:56:36.255Z,95442.88
2023-10-25T12:59:03.510Z,95429.25
2023-10-25T13:01:30.140Z,95418.22
2023-10-25T13:03:56.868Z,95427.66
2023-10-25T13:06:23.879Z,95434.84
2023-10-25T13:08:50.531Z,95436.28
2023-10-25T13:11:17.509Z,95434.22
2023-10-25T13:13:44.284Z,95428.00
2023-10-25T13:16:10.834Z,95425.72
2023-10-25T13:18:37.727Z,95410.19
2023-10-25T13:21:05.115Z,95415.16
2023-10-25T13:23:31.798Z,95403.78
2023-10-25T13:25:58.530Z,95412.59
2023-10-25T13:28:25.039Z,95407.47
2023-10-25T13:30:51.589Z,95409.22
2023-10-25T13:33:18.220Z,95403.47
2023-10-25T13:35:44.873Z,95397.91
2023-10-25T13:38:11.454Z,95393.09
2023-10-25T13:40:37.950Z,95391.50
2023-10-25T13:43:04.664Z,95398.06
2023-10-25T13:45:31.453Z,95391.94
2023-10-25T13:47:58.170Z,95385.25
2023-10-25T13:50:24.773Z,95375.69
2023-10-25T13:52:51.379Z,95375.34
2023-10-25T13:55:18.479Z,95377.59
2023-10-25T13:57:45.088Z,95379.50
2023-10-25T14:00:12.363Z,95378.50
2023-10-25T14:02:42.049Z,95369.88
2023-10-25T14:05:09.513Z,95372.94
2023-10-25T14:07:36.352Z,95374.34
2023-10-25T14:10:03.265Z,95364.59
2023-10-25T14:12:31.160Z,95371.16
2023-10-25T14:14:57.748Z,95367.81
2023-10-25T14:17:24.535Z,95360.13
2023-10-25T14:19:51.080Z,95351.97
2023-10-25T14:22:17.728Z,95349.59
2023-10-25T14:24:44.976Z,95355.19
2023-10-25T14:27:11.786Z,95342.22
2023-10-25T14:29:38.382Z,95340.16
2023-10-25T14:32:05.976Z,95347.34
2023-10-25T14:34:32.576Z,95345.25
2023-10-25T14:36:59.423Z,95334.41
2023-10-25T14:39:26.024Z,95331.66
2023-10-25T14:41:52.619Z,95327.66
2023-10-25T14:44:19.238Z,95328.78
2023-10-25T14:46:46.244Z,95310.41
2023-10-25T14:49:15.155Z,95308.50
2023-10-25T14:51:43.025Z,95306.25
2023-10-25T14:54:11.035Z,95312.16
2023-10-25T14:56:37.933Z,95308.16
2023-10-25T14:59:04.551Z,95297.94
2023-10-25T15:01:31.121Z,95304.50
2023-10-25T15:03:58.173Z,95300.19
2023-10-25T15:06:29.571Z,95297.13
2023-10-25T15:08:56.920Z,95304.94
2023-10-25T15:11:24.196Z,95298.88
2023-10-25T15:13:50.785Z,95299.03
2023-10-25T15:16:18.928Z,95297.44
2023-10-25T15:18:46.276Z,95303.19
2023-10-25T15:21:17.440Z,95306.53
2023-10-25T15:23:44.875Z,95275.41
2023-10-25T15:26:11.518Z,95288.47
2023-10-25T15:28:38.300Z,95288.97
2023-10-25T15:31:09.310Z,95308.59
2023-10-25T15:33:40.824Z,95308.91
2023-10-25T15:36:08.020Z,95299.66
2023-10-25T15:38:37.827Z,95303.44
2023-10-25T15:41:20.809Z,95310.44
2023-10-25T15:43:48.261Z,95324.34
2023-10-25T15:46:16.210Z,95316.28
2023-10-25T15:48:45.134Z,95295.63
2023-10-25T15:51:14.046Z,95272.66
2023-10-25T15:53:42.025Z,95268.97
2023-10-25T15:56:10.275Z,95255.19
2023-10-25T15:58:38.579Z,95259.53
2023-10-25T16:01:20.269Z,95260.84
2023-10-25T16:03:55.651Z,95246.91
2023-10-25T16:06:22.651Z,95250.53
2023-10-25T16:08:49.207Z,95260.34
2023-10-25T16:11:15.913Z,95244.78
2023-10-25T16:13:42.432Z,95236.19
2023-10-25T16:16:09.271Z,95253.34
2023-10-25T16:18:37.130Z,95262.53
2023-10-25T16:21:08.106Z,95255.31
2023-10-25T16:23:43.043Z,95255.56
2023-10-25T16:26:11.226Z,95258.19
2023-10-25T16:28:39.192Z,95261.88
2023-10-25T16:31:05.941Z,95252.78
2023-10-25T16:33:33.990Z,95262.63
2023-10-25T16:36:03.934Z,95269.75
2023-10-25T16:38:30.772Z,95255.31
2023-10-25T16:41:07.978Z,95251.66
2023-10-25T16:43:35.905Z,95250.06
2023-10-25T16:46:12.391Z,95263.44
2023-10-25T16:48:43.663Z,95259.22
2023-10-25T16:51:21.429Z,95258.88
2023-10-25T16:53:50.101Z,95253.25
2023-10-25T16:56:19.105Z,95258.00
2023-10-25T16:58:45.688Z,95268.53
2023-10-25T17:01:14.366Z,95267.78
2023-10-25T17:03:43.587Z,95277.53
2023-10-25T17:06:12.809Z,95286.66
2023-10-25T17:08:41.131Z,95290.00
2023-10-25T17:11:09.638Z,95296.41
2023-10-25T17:13:37.985Z,95297.91
2023-10-25T17:16:05.440Z,95270.09
2023-10-25T17:18:33.415Z,95266.78
2023-10-25T17:21:01.209Z,95260.63
2023-10-25T17:23:28.190Z,95262.38
2023-10-25T17:25:56.338Z,95248.66
2023-10-25T17:28:24.126Z,95231.91
2023-10-25T17:30:50.712Z,95231.13
2023-10-25T17:33:17.452Z,95221.22
2023-10-25T17:35:48.855Z,95234.31
2023-10-25T17:38:19.283Z,95235.13
2023-10-25T17:40:53.218Z,95236.25
2023-10-25T17:43:20.109Z,95241.84
2023-10-25T17:46:09.728Z,95240.13
2023-10-25T17:48:36.776Z,95242.00
2023-10-25T17:51:10.619Z,95234.94
2023-10-25T17:53:37.552Z,95236.69
2023-10-25T17:56:04.464Z,95245.75
2023-10-25T17:58:31.144Z,95259.97
2023-10-25T18:00:57.907Z,95254.03
2023-10-25T18:03:25.104Z,95250.41
2023-10-25T18:05:51.985Z,95244.13
2023-10-25T18:08:25.276Z,95255.88
2023-10-25T18:10:54.029Z,95248.06
2023-10-25T18:13:21.153Z,95264.81
2023-10-25T18:15:47.829Z,95257.47
2023-10-25T18:18:14.986Z,95260.69
2023-10-25T18:20:41.835Z,95263.09
2023-10-25T18:23:08.440Z,95253.59
2023-10-25T18:25:34.989Z,95257.16
2023-10-25T18:28:02.227Z,95265.16
2023-10-25T18:31:59.071Z,95263.59
2023-10-25T18:33:20.130Z,95263.59
2023-10-25T18:35:49.330Z,95278.16
2023-10-25T18:38:16.629Z,95279.13
2023-10-25T18:40:44.280Z,95284.56
2023-10-25T18:43:12.671Z,95289.53
2023-10-25T18:45:39.327Z,95292.06
2023-10-25T18:48:06.119Z,95295.13
2023-10-25T18:50:35.875Z,95301.97
2023-10-25T18:53:02.515Z,95298.25
2023-10-25T18:55:29.046Z,95293.16
2023-10-25T18:57:55.649Z,95302.09
2023-10-25T19:00:24.466Z,95304.63
2023-10-25T19:02:51.709Z,95303.50
2023-10-25T19:06:32.218Z,95299.69
2023-10-25T19:08:26.469Z,95296.50
2023-10-25T19:10:51.590Z,95309.41
2023-10-25T19:13:18.076Z,95314.09
2023-10-25T19:15:44.682Z,95324.31
2023-10-25T19:18:11.765Z,95311.56
2023-10-25T19:20:38.406Z,95320.09
2023-10-25T19:23:05.235Z,95315.94
2023-10-25T19:25:31.804Z,95316.53
2023-10-25T19:27:58.399Z,95328.16
2023-10-25T19:30:25.041Z,95338.19
2023-10-25T19:32:51.737Z,95336.94
2023-10-25T19:35:18.319Z,95350.41
2023-10-25T19:37:44.866Z,95362.53
2023-10-25T19:40:11.733Z,95363.41
2023-10-25T19:42:41.432Z,95360.84
2023-10-25T19:45:09.314Z,95369.81
2023-10-25T19:47:36.257Z,95368.13
2023-10-25T19:50:03.311Z,95380.88
2023-10-25T19:52:29.915Z,95394.16
2023-10-25T19:54:57.313Z,95386.72
2023-10-25T19:57:23.857Z,95393.69
2023-10-25T19:59:50.385Z,95396.94
2023-10-25T20:02:16.928Z,95398.78
2023-10-25T20:04:44.147Z,95411.13
2023-10-25T20:07:11.017Z,95393.69
2023-10-25T20:09:37.590Z,95410.56
2023-10-25T20:12:04.417Z,95412.19
2023-10-25T20:14:30.999Z,95418.78
2023-10-25T20:16:57.539Z,95417.78
2023-10-25T20:19:24.109Z,95415.38
2023-10-25T20:21:50.668Z,95415.38
2023-10-25T20:24:17.432Z,95420.22
2023-10-25T20:26:45.040Z,95410.28
2023-10-25T20:29:11.611Z,95423.72
2023-10-25T20:31:38.144Z,95427.94
2023-10-25T20:34:04.834Z,95435.16
2023-10-25T20:36:31.352Z,95426.31
2023-10-25T20:38:58.668Z,95440.84
2023-10-25T20:41:27.452Z,95438.16
2023-10-25T20:43:55.471Z,95442.47
2023-10-25T20:46:22.069Z,95438.81
2023-10-25T20:48:48.752Z,95436.50
2023-10-25T20:51:16.303Z,95440.50
2023-10-25T20:53:42.971Z,95448.03
2023-10-25T20:56:09.507Z,95455.16
2023-10-25T20:58:35.985Z,95459.47
2023-10-25T21:01:05.784Z,95457.84
2023-10-25T21:03:33.577Z,95462.34
2023-10-25T21:06:00.253Z,95466.78
2023-10-25T21:08:26.772Z,95469.00
2023-10-25T21:10:53.362Z,95472.59
2023-10-25T21:13:19.975Z,95488.56
2023-10-25T21:15:50.427Z,95475.44
2023-10-25T21:18:17.454Z,95482.25
2023-10-25T21:20:48.657Z,95480.31
2023-10-25T21:23:16.336Z,95481.25
2023-10-25T21:25:43.638Z,95467.53
2023-10-25T21:28:10.593Z,95479.56
2023-10-25T21:30:38.294Z,95471.66
2023-10-25T21:33:05.962Z,95482.28
2023-10-25T21:35:32.667Z,95488.00
2023-10-25T21:37:59.211Z,95498.63
2023-10-25T21:40:25.738Z,95491.31
2023-10-25T21:42:52.338Z,95495.00
2023-10-25T21:45:19.755Z,95497.03
2023-10-25T21:47:47.104Z,95498.00
2023-10-25T21:50:13.919Z,95497.59
2023-10-25T21:52:40.473Z,95505.91
2023-10-25T21:55:07.712Z,95506.75
2023-10-25T21:58:45.961Z,95510.84
2023-10-25T22:00:22.349Z,95505.72
2023-10-25T22:02:49.278Z,95509.84
2023-10-25T22:05:16.155Z,95510.84
2023-10-25T22:07:42.703Z,95511.13
2023-10-25T22:10:09.635Z,95509.53
2023-10-25T22:12:36.362Z,95515.03
2023-10-25T22:15:03.665Z,95510.28
2023-10-25T22:17:30.292Z,95510.63
2023-10-25T22:19:56.945Z,95513.13
2023-10-25T22:22:24.497Z,95510.63
2023-10-25T22:24:50.992Z,95501.59
2023-10-25T22:27:17.645Z,95519.66
2023-10-25T22:29:44.287Z,95514.00
2023-10-25T22:32:10.895Z,95512.31
2023-10-25T22:34:37.420Z,95509.50
2023-10-25T22:37:04.124Z,95518.03
2023-10-25T22:39:30.660Z,95516.16
2023-10-25T22:41:59.077Z,95512.94
2023-10-25T22:44:25.719Z,95522.75
2023-10-25T22:46:52.393Z,95521.66
2023-10-25T22:49:19.089Z,95523.69
2023-10-25T22:51:46.832Z,95526.31
2023-10-25T22:54:13.686Z,95536.53
2023-10-25T22:56:40.317Z,95529.41
2023-10-25T22:59:06.908Z,95537.69
2023-10-25T23:01:33.462Z,95540.19
2023-10-25T23:04:00.295Z,95527.28
2023-10-25T23:06:27.066Z,95530.56
2023-10-25T23:08:53.761Z,95536.19
2023-10-25T23:11:20.278Z,95537.06
2023-10-25T23:13:46.759Z,95532.81
2023-10-25T23:16:13.262Z,95542.03
2023-10-25T23:18:40.171Z,95543.00
2023-10-25T23:21:07.044Z,95549.88
2023-10-25T23:23:33.583Z,95546.53
2023-10-25T23:26:07.080Z,95550.13
2023-10-25T23:28:33.835Z,95556.09
2023-10-25T23:31:06.176Z,95548.28
2023-10-25T23:33:37.409Z,95554.28
2023-10-25T23:36:05.731Z,95554.59
2023-10-25T23:38:32.652Z,95560.78
2023-10-25T23:40:59.745Z,95564.78
2023-10-25T23:43:26.910Z,95555.16
2023-10-25T23:45:54.713Z,95553.94
2023-10-25T23:48:21.344Z,95564.31
2023-10-25T23:50:48.846Z,95557.59
2023-10-25T23:53:16.535Z,95566.41
2023-10-25T23:55:43.892Z,95562.16
2023-10-25T23:58:10.858Z,95557.13
